Time;durP1;ratioP1;P1;durP2;ratioP2;P2;SDS_P1;SDS_P2;PMS_P1;PMS_P2;Temp;Humidity;BMP_temperature;BMP_pressure;BME280_temperature;BME280_humidity;BME280_pressure;Samples;Min_cycle;Max_cycle;Signal;HPM_P1;HPM_P2
2021/06/22 00:00:24;;;;;;;10.27;3.58;;;;;;;22.16;52.77;92161.94;2067920;69;20158;-74
2021/06/22 00:02:51;;;;;;;10.65;3.75;;;;;;;21.88;53.47;92162.34;2068591;69;20618;-74
2021/06/22 00:05:17;;;;;;;11.77;3.30;;;;;;;21.85;54.07;92160.88;2068528;69;20136;-74
2021/06/22 00:07:48;;;;;;;10.27;3.28;;;;;;;21.89;54.10;92163.81;2068510;69;20164;-76
2021/06/22 00:10:16;;;;;;;9.60;2.75;;;;;;;21.73;54.21;92167.22;2068482;69;20204;-75
2021/06/22 00:12:43;;;;;;;8.73;2.53;;;;;;;21.60;55.29;92177.09;2068555;69;20239;-74
2021/06/22 00:15:11;;;;;;;8.57;2.10;;;;;;;21.60;54.80;92180.69;2068518;69;20151;-74
2021/06/22 00:17:37;;;;;;;8.80;2.17;;;;;;;21.50;54.72;92178.41;2068625;69;20243;-75
2021/06/22 00:20:05;;;;;;;10.98;2.50;;;;;;;21.69;54.36;92192.97;2068358;69;20506;-74
2021/06/22 00:22:30;;;;;;;8.70;2.53;;;;;;;21.75;54.36;92190.16;2068424;69;20140;-75
2021/06/22 00:24:56;;;;;;;7.28;2.40;;;;;;;21.74;54.33;92191.56;2068370;69;20234;-75
2021/06/22 00:27:22;;;;;;;8.23;2.45;;;;;;;21.75;53.86;92190.88;2068174;69;20592;-74
2021/06/22 00:29:54;;;;;;;12.50;2.95;;;;;;;21.28;55.51;92193.16;2067582;69;20132;-73
2021/06/22 00:32:20;;;;;;;9.35;2.80;;;;;;;21.82;52.98;92186.66;2068386;69;20197;-75
2021/06/22 00:34:47;;;;;;;13.40;3.00;;;;;;;21.72;53.80;92185.84;2068231;69;20147;-75
2021/06/22 00:37:15;;;;;;;12.20;3.28;;;;;;;21.54;54.89;92183.47;2068375;69;20153;-76
2021/06/22 00:39:42;;;;;;;15.02;3.75;;;;;;;21.18;55.90;92184.44;2068315;69;20587;-75
2021/06/22 00:42:11;;;;;;;9.80;3.08;;;;;;;21.26;56.14;92180.97;2068290;69;20244;-75
2021/06/22 00:44:52;;;;;;;10.23;3.30;;;;;;;21.52;55.25;92189.16;2068588;69;20228;-75
2021/06/22 00:47:19;;;;;;;12.93;2.92;;;;;;;21.46;55.62;92189.81;2067957;69;20148;-74
2021/06/22 00:49:48;;;;;;;9.68;2.78;;;;;;;21.53;54.38;92190.59;2068155;69;20136;-74
2021/06/22 00:52:14;;;;;;;15.23;3.00;;;;;;;21.57;54.97;92202.13;2070286;69;20167;-74
2021/06/22 00:54:43;;;;;;;12.57;3.42;;;;;;;21.64;53.91;92195.06;2068420;69;20129;-74
2021/06/22 00:57:09;;;;;;;11.60;3.20;;;;;;;21.73;53.58;92196.59;2071597;69;20186;-74
2021/06/22 00:59:36;;;;;;;11.77;2.92;;;;;;;21.90;52.84;92194.63;2068276;69;20152;-74
2021/06/22 01:02:03;;;;;;;11.52;2.67;;;;;;;21.63;54.93;92196.47;2071347;69;20151;-75
2021/06/22 01:04:30;;;;;;;12.43;2.55;;;;;;;21.65;54.81;92198.63;2071650;69;20140;-74
2021/06/22 01:07:15;;;;;;;11.45;2.90;;;;;;;21.63;55.46;92192.91;2068270;69;20176;-74
2021/06/22 01:09:41;;;;;;;9.00;2.50;;;;;;;22.03;53.32;92187.59;2071583;69;20170;-74
2021/06/22 01:12:08;;;;;;;12.27;3.25;;;;;;;21.27;55.58;92193.84;2067788;69;20141;-73
2021/06/22 01:14:40;;;;;;;8.40;2.63;;;;;;;21.31;54.92;92196.81;2070721;69;20250;-74
2021/06/22 01:17:06;;;;;;;10.03;3.03;;;;;;;21.48;54.51;92197.72;2071635;69;20140;-74
2021/06/22 01:19:32;;;;;;;9.35;2.90;;;;;;;21.45;54.41;92194.13;2071408;69;20147;-73
2021/06/22 01:21:58;;;;;;;9.40;2.65;;;;;;;21.51;54.38;92199.91;2071555;69;20172;-74
2021/06/22 01:24:37;;;;;;;9.25;2.42;;;;;;;21.59;54.77;92199.28;2071085;69;20216;-74
2021/06/22 01:27:04;;;;;;;6.53;2.35;;;;;;;21.47;55.66;92202.00;2071598;69;20129;-75
2021/06/22 01:29:30;;;;;;;6.63;2.42;;;;;;;21.42;55.42;92204.09;2068103;69;20151;-74
2021/06/22 01:31:58;;;;;;;9.38;2.97;;;;;;;21.18;55.77;92203.75;2071416;69;20144;-74
2021/06/22 01:34:29;;;;;;;13.38;3.78;;;;;;;21.28;55.39;92198.88;2067783;69;20511;-74
2021/06/22 01:36:58;;;;;;;13.80;3.38;;;;;;;21.42;55.16;92204.09;2068025;69;20594;-75
2021/06/22 01:39:28;;;;;;;14.25;3.53;;;;;;;21.40;55.02;92191.91;2071419;69;20283;-75
2021/06/22 01:41:54;;;;;;;12.35;2.90;;;;;;;21.45;54.79;92202.69;2071511;69;20172;-75
2021/06/22 01:44:26;;;;;;;10.40;3.35;;;;;;;21.40;56.32;92197.63;2071596;69;20139;-75
2021/06/22 01:46:51;;;;;;;10.93;2.80;;;;;;;21.48;56.18;92207.00;2071422;69;20569;-74
2021/06/22 01:49:17;;;;;;;7.60;2.45;;;;;;;21.62;55.07;92200.03;2071370;69;20599;-74
2021/06/22 01:51:43;;;;;;;7.55;2.10;;;;;;;21.74;52.67;92203.03;2071171;69;20499;-74
2021/06/22 01:54:10;;;;;;;8.77;1.80;;;;;;;21.74;54.03;92212.34;2065081;69;20234;-74
2021/06/22 01:56:37;;;;;;;8.65;1.90;;;;;;;21.71;53.60;92208.00;2071571;69;20156;-74
2021/06/22 01:59:04;;;;;;;10.45;2.00;;;;;;;21.73;53.54;92208.03;2068439;69;20231;-74
2021/06/22 02:01:48;;;;;;;5.43;2.10;;;;;;;21.85;53.17;92210.31;2071538;69;20633;-75
2021/06/22 02:04:27;;;;;;;7.25;2.78;;;;;;;21.69;53.13;92215.88;2067894;69;20175;-75
2021/06/22 02:06:55;;;;;;;9.40;2.55;;;;;;;21.71;53.89;92213.03;2068248;69;20179;-74
2021/06/22 02:09:43;;;;;;;8.43;2.47;;;;;;;21.68;52.07;92217.28;2069471;69;20543;-74
2021/06/22 02:12:16;;;;;;;9.68;2.40;;;;;;;21.80;52.64;92212.41;2071633;69;20195;-75
2021/06/22 02:14:42;;;;;;;11.20;2.75;;;;;;;21.13;55.98;92217.28;2068196;69;20595;-75
2021/06/22 02:17:08;;;;;;;9.13;2.85;;;;;;;21.41;55.06;92213.38;2068194;69;20595;-74
2021/06/22 02:19:33;;;;;;;7.75;3.00;;;;;;;21.41;55.99;92219.09;2071535;69;20233;-75
2021/06/22 02:22:06;;;;;;;8.20;2.90;;;;;;;21.27;55.11;92222.47;2068244;69;20552;-74
2021/06/22 02:24:59;;;;;;;9.07;2.60;;;;;;;21.26;55.10;92229.63;2070864;69;20171;-74
2021/06/22 02:27:30;;;;;;;9.88;2.70;;;;;;;21.28;55.98;92236.09;2071611;69;20152;-74
2021/06/22 02:29:59;;;;;;;6.50;2.42;;;;;;;21.17;56.47;92225.22;2068208;69;20534;-75
2021/06/22 02:32:26;;;;;;;8.43;2.00;;;;;;;21.27;54.85;92231.06;2071643;69;20199;-74
2021/06/22 02:34:54;;;;;;;8.15;2.50;;;;;;;21.57;53.61;92230.75;2068037;69;20232;-75
2021/06/22 02:37:23;;;;;;;8.52;2.40;;;;;;;21.18;53.32;92229.50;2068035;69;20191;-74
2021/06/22 02:39:48;;;;;;;10.15;2.60;;;;;;;21.17;54.42;92236.66;2071626;69;20255;-74
2021/06/22 02:42:15;;;;;;;9.25;2.20;;;;;;;21.13;53.16;92234.44;2068217;69;20231;-74
2021/06/22 02:44:42;;;;;;;6.28;2.45;;;;;;;21.09;54.59;92227.94;2071676;69;20514;-74
2021/06/22 02:47:08;;;;;;;9.57;1.90;;;;;;;20.90;55.56;92224.09;2068130;69;20135;-74
2021/06/22 02:49:33;;;;;;;10.18;2.08;;;;;;;20.77;56.12;92231.78;2068124;69;20152;-74
2021/06/22 02:52:00;;;;;;;7.45;1.70;;;;;;;20.81;55.68;92234.69;2067504;69;20153;-74
2021/06/22 02:54:27;;;;;;;6.38;1.73;;;;;;;20.49;57.40;92227.03;2067615;69;20149;-73
2021/06/22 02:56:54;;;;;;;3.63;1.80;;;;;;;20.62;55.26;92227.97;2067620;69;20564;-75
2021/06/22 02:59:19;;;;;;;5.13;1.83;;;;;;;20.66;55.14;92222.28;2066934;69;20156;-75
2021/06/22 03:01:45;;;;;;;5.10;1.60;;;;;;;20.65;55.03;92223.72;2066978;69;20167;-75
2021/06/22 03:04:13;;;;;;;5.53;1.45;;;;;;;20.66;55.14;92233.00;2067498;69;20149;-76
2021/06/22 03:06:41;;;;;;;5.38;2.28;;;;;;;20.40;56.04;92231.16;2066969;69;20647;-75
2021/06/22 03:09:29;;;;;;;8.35;2.40;;;;;;;20.43;56.17;92231.88;2067517;69;20148;-75
2021/06/22 03:11:55;;;;;;;8.60;2.15;;;;;;;20.45;55.91;92237.66;2067494;69;20249;-75
2021/06/22 03:14:22;;;;;;;6.18;2.17;;;;;;;20.37;55.64;92231.78;2066866;69;20230;-76
2021/06/22 03:17:08;;;;;;;5.95;1.90;;;;;;;20.35;57.17;92237.50;2067360;69;20160;-75
2021/06/22 03:19:39;;;;;;;7.50;1.98;;;;;;;20.35;55.85;92232.50;2066752;69;20157;-76
2021/06/22 03:22:07;;;;;;;4.50;1.70;;;;;;;20.31;57.33;92238.84;2066900;69;20264;-76
2021/06/22 03:24:33;;;;;;;5.72;1.80;;;;;;;20.30;55.90;92242.41;2066926;69;20245;-76
2021/06/22 03:27:01;;;;;;;4.82;2.00;;;;;;;20.38;55.99;92244.66;2066899;69;20303;-76
2021/06/22 03:29:35;;;;;;;7.32;2.63;;;;;;;20.16;56.06;92242.88;2066912;69;20168;-76
2021/06/22 03:32:08;;;;;;;8.63;2.83;;;;;;;20.08;55.82;92242.72;2067450;69;20152;-76
2021/06/22 03:34:36;;;;;;;6.63;2.42;;;;;;;20.18;55.93;92245.03;2067361;69;20543;-76
2021/06/22 03:37:03;;;;;;;6.10;2.45;;;;;;;20.06;55.78;92251.97;2067427;69;20226;-75
2021/06/22 03:39:31;;;;;;;7.68;2.42;;;;;;;20.01;56.86;92252.59;2066759;69;20161;-75
2021/06/22 03:41:57;;;;;;;8.85;1.98;;;;;;;19.88;58.16;92250.91;2067367;69;20230;-75
2021/06/22 03:44:23;;;;;;;18.75;7.57;;;;;;;19.72;57.47;92249.19;2066707;69;20246;-76
2021/06/22 03:47:05;;;;;;;13.50;5.05;;;;;;;19.49;57.07;92250.13;2066888;69;20184;-75
2021/06/22 03:49:32;;;;;;;13.73;5.13;;;;;;;19.76;56.63;92251.41;2067239;69;20173;-76
2021/06/22 03:51:58;;;;;;;11.98;5.13;;;;;;;19.70;57.57;92265.56;2069608;69;20240;-75
2021/06/22 03:54:27;;;;;;;12.00;5.78;;;;;;;19.82;57.19;92256.50;2071288;69;20176;-75
2021/06/22 03:56:53;;;;;;;11.85;5.25;;;;;;;19.75;57.67;92253.53;2071579;69;20764;-75
2021/06/22 03:59:24;;;;;;;10.55;4.50;;;;;;;20.01;56.75;92258.31;2067854;69;20315;-75
2021/06/22 04:01:51;;;;;;;14.63;5.10;;;;;;;19.83;57.24;92255.09;2067805;69;20518;-75
2021/06/22 04:04:17;;;;;;;9.13;3.78;;;;;;;19.85;55.78;92255.16;2065016;69;20141;-75
2021/06/22 04:07:03;;;;;;;10.23;4.95;;;;;;;19.80;57.18;92254.34;2071324;69;20156;-75
2021/06/22 04:09:30;;;;;;;13.00;4.10;;;;;;;19.67;57.77;92261.22;2067886;69;20144;-75
2021/06/22 04:11:57;;;;;;;10.30;4.50;;;;;;;19.62;58.16;92260.41;2067820;69;20156;-76
2021/06/22 04:14:23;;;;;;;8.65;3.58;;;;;;;19.65;57.38;92264.03;2071191;69;20159;-76
2021/06/22 04:16:49;;;;;;;7.75;3.72;;;;;;;19.68;57.62;92265.53;2071259;69;20151;-75
2021/06/22 04:19:15;;;;;;;12.48;3.90;;;;;;;19.63;57.74;92256.16;2071106;69;20192;-74
2021/06/22 04:21:42;;;;;;;12.48;3.90;;;;;;;19.62;57.76;92266.13;2067918;69;20156;-73
2021/06/22 04:24:34;;;;;;;9.32;3.10;;;;;;;19.65;57.79;92261.88;2070667;69;20172;-74
2021/06/22 04:27:00;;;;;;;6.55;3.03;;;;;;;19.59;58.51;92258.16;2071335;69;20250;-74
2021/06/22 04:29:25;;;;;;;6.70;2.80;;;;;;;19.57;58.97;92258.16;2071312;69;20167;-74
2021/06/22 04:31:51;;;;;;;13.93;2.50;;;;;;;19.58;58.13;92262.44;2071269;69;20156;-74
2021/06/22 04:34:18;;;;;;;5.90;1.90;;;;;;;19.67;57.65;92259.09;2071082;69;20148;-74
2021/06/22 04:36:44;;;;;;;7.47;2.58;;;;;;;19.70;59.08;92251.28;2071246;69;20678;-74
2021/06/22 04:39:10;;;;;;;6.18;2.08;;;;;;;19.59;59.25;92263.88;2071347;69;20235;-74
2021/06/22 04:41:35;;;;;;;9.32;3.10;;;;;;;19.49;58.41;92259.41;2071235;69;20293;-74
2021/06/22 04:44:01;;;;;;;15.07;4.00;;;;;;;19.57;57.50;92258.16;2071357;69;20618;-75
2021/06/22 04:46:27;;;;;;;12.95;3.60;;;;;;;19.57;57.34;92258.16;2071310;69;20235;-74
2021/06/22 04:48:52;;;;;;;10.48;2.97;;;;;;;19.71;58.26;92264.88;2071214;69;20163;-73
2021/06/22 04:51:18;;;;;;;7.15;2.95;;;;;;;19.33;60.04;92267.63;2071238;69;20176;-74
2021/06/22 04:53:44;;;;;;;9.32;2.65;;;;;;;19.49;59.57;92270.09;2071372;69;20614;-74
2021/06/22 04:56:09;;;;;;;10.02;3.20;;;;;;;19.59;58.99;92276.03;2067863;69;20526;-74
2021/06/22 04:58:35;;;;;;;6.55;2.78;;;;;;;19.52;58.49;92278.03;2071082;69;20260;-74
2021/06/22 05:01:05;;;;;;;8.70;2.83;;;;;;;19.48;59.65;92283.66;2071258;69;20155;-74
2021/06/22 05:03:35;;;;;;;8.35;2.78;;;;;;;19.48;59.09;92282.94;2071415;69;20159;-75
2021/06/22 05:06:01;;;;;;;8.95;2.90;;;;;;;19.58;59.07;92283.16;2071146;69;20140;-75
2021/06/22 05:08:27;;;;;;;7.43;3.13;;;;;;;19.67;58.19;92284.06;2071308;69;20148;-74
2021/06/22 05:10:53;;;;;;;12.50;3.00;;;;;;;19.66;58.25;92276.91;2071320;69;20606;-74
2021/06/22 05:13:22;;;;;;;10.93;3.15;;;;;;;19.60;59.42;92288.16;2071261;69;20191;-74
2021/06/22 05:15:47;;;;;;;7.97;2.40;;;;;;;19.64;59.57;92288.28;2071309;69;20148;-73
2021/06/22 05:18:13;;;;;;;10.32;2.60;;;;;;;19.61;59.90;92283.91;2071335;69;20154;-75
2021/06/22 05:20:39;;;;;;;7.45;2.85;;;;;;;19.60;59.08;92283.19;2067747;69;20153;-74
2021/06/22 05:23:04;;;;;;;8.05;3.08;;;;;;;19.75;58.88;92284.25;2071270;69;20180;-75
2021/06/22 05:25:30;;;;;;;9.90;3.63;;;;;;;19.51;60.16;92292.97;2071361;69;20239;-74
2021/06/22 05:27:56;;;;;;;8.48;3.13;;;;;;;19.70;57.63;92288.41;2071285;69;20176;-74
2021/06/22 05:30:22;;;;;;;18.92;3.63;;;;;;;19.67;59.60;92286.91;2071242;69;20522;-74
2021/06/22 05:32:48;;;;;;;11.20;3.65;;;;;;;19.65;59.73;92292.56;2071302;69;20215;-74
2021/06/22 05:35:13;;;;;;;16.83;3.85;;;;;;;19.51;60.30;92282.28;2071190;69;20145;-74
2021/06/22 05:37:39;;;;;;;13.07;4.18;;;;;;;19.60;59.80;92273.88;2071124;69;20267;-74
2021/06/22 05:40:07;;;;;;;6.60;3.17;;;;;;;19.58;59.82;92277.44;2071283;69;20641;-75
2021/06/22 05:42:33;;;;;;;8.38;3.15;;;;;;;19.72;59.02;92277.75;2071233;69;20214;-75
2021/06/22 05:44:58;;;;;;;5.82;2.92;;;;;;;19.62;58.76;92274.69;2071385;69;20160;-74
2021/06/22 05:47:24;;;;;;;7.93;3.25;;;;;;;19.73;59.65;92273.47;2071319;69;20151;-77
2021/06/22 05:49:50;;;;;;;7.53;3.10;;;;;;;19.75;58.58;92267.09;2067839;69;20274;-80
2021/06/22 05:52:17;;;;;;;10.48;2.50;;;;;;;19.75;59.73;92269.97;2071397;69;20274;-74
2021/06/22 05:54:42;;;;;;;8.73;2.15;;;;;;;19.63;61.23;92259.00;2071322;69;20530;-75
2021/06/22 05:57:08;;;;;;;4.53;1.83;;;;;;;19.79;59.45;92261.44;2071263;69;20167;-78
2021/06/22 05:59:35;;;;;;;6.07;2.08;;;;;;;19.86;60.13;92260.16;2071267;69;20143;-75
2021/06/22 06:02:03;;;;;;;10.63;2.90;;;;;;;19.91;59.37;92263.81;2068035;69;20237;-76
2021/06/22 06:04:29;;;;;;;8.50;2.67;;;;;;;19.96;59.73;92262.50;2067764;69;20171;-75
2021/06/22 06:06:56;;;;;;;5.88;2.53;;;;;;;19.97;57.14;92266.78;2071267;69;20273;-75
2021/06/22 06:09:22;;;;;;;5.57;1.90;;;;;;;19.96;60.54;92263.22;2067927;69;20781;-77
2021/06/22 06:11:48;;;;;;;13.50;3.88;;;;;;;20.18;57.57;92270.75;2071153;69;20148;-75
2021/06/22 06:14:14;;;;;;;8.93;3.60;;;;;;;20.30;56.24;92268.84;2071286;69;20174;-75
2021/06/22 06:16:39;;;;;;;15.20;3.72;;;;;;;20.52;54.98;92257.09;2071205;69;20243;-76
2021/06/22 06:19:06;;;;;;;11.57;3.85;;;;;;;20.01;57.69;92256.16;2071086;69;20187;-79
2021/06/22 06:21:32;;;;;;;15.10;3.72;;;;;;;20.09;57.57;92255.59;2071383;69;20720;-75
2021/06/22 06:23:58;;;;;;;11.50;3.47;;;;;;;20.21;58.34;92260.81;2071093;69;20328;-75
2021/06/22 06:26:27;;;;;;;6.22;2.78;;;;;;;20.46;56.57;92261.97;2067857;69;20147;-74
2021/06/22 06:28:56;;;;;;;7.57;2.40;;;;;;;20.56;57.27;92260.03;2071372;69;20147;-73
2021/06/22 06:31:22;;;;;;;6.70;2.63;;;;;;;20.63;56.87;92255.16;2071221;69;20173;-77
2021/06/22 06:33:48;;;;;;;8.77;2.45;;;;;;;20.67;58.07;92249.50;2071342;69;20272;-76
2021/06/22 06:36:14;;;;;;;5.18;2.22;;;;;;;20.87;56.13;92254.09;2071219;69;20159;-76
2021/06/22 06:38:40;;;;;;;9.52;2.20;;;;;;;20.96;56.13;92247.78;2071338;69;20167;-74
2021/06/22 06:41:06;;;;;;;8.05;2.35;;;;;;;21.03;55.85;92254.34;2071268;69;20194;-74
2021/06/22 06:43:32;;;;;;;8.15;2.20;;;;;;;21.16;56.00;92253.06;2071253;69;20241;-74
2021/06/22 06:45:57;;;;;;;9.50;2.03;;;;;;;21.28;55.93;92250.41;2071157;69;20590;-74
2021/06/22 06:48:25;;;;;;;6.80;2.13;;;;;;;21.39;54.75;92254.16;2071393;69;20583;-74
2021/06/22 06:50:51;;;;;;;7.22;2.08;;;;;;;21.44;55.48;92237.75;2070957;69;20199;-74
2021/06/22 06:53:17;;;;;;;4.47;1.55;;;;;;;21.54;53.24;92235.03;2071217;69;20603;-74
2021/06/22 06:55:43;;;;;;;8.93;1.80;;;;;;;21.74;52.93;92246.00;2071455;69;20215;-74
2021/06/22 06:58:09;;;;;;;2.55;1.58;;;;;;;21.83;53.44;92247.53;2071138;69;20160;-74
2021/06/22 07:00:37;;;;;;;7.97;1.55;;;;;;;21.92;52.51;92236.91;2071278;69;20176;-74
2021/06/22 07:03:05;;;;;;;5.57;1.58;;;;;;;21.95;54.71;92241.97;2071262;69;20228;-74
2021/06/22 07:05:32;;;;;;;4.32;1.63;;;;;;;22.01;52.91;92235.56;2071147;69;20144;-75
2021/06/22 07:07:58;;;;;;;3.83;1.90;;;;;;;22.09;52.54;92241.41;2071407;69;20156;-74
2021/06/22 07:10:26;;;;;;;5.07;1.90;;;;;;;22.17;52.83;92235.03;2071247;69;20645;-75
2021/06/22 07:12:53;;;;;;;5.57;1.63;;;;;;;22.26;53.68;92236.56;2071400;69;20144;-74
2021/06/22 07:15:19;;;;;;;6.60;1.80;;;;;;;22.31;54.89;92238.06;2071339;69;20148;-74
2021/06/22 07:17:44;;;;;;;5.88;1.88;;;;;;;22.41;52.57;92232.44;2071173;69;20168;-76
2021/06/22 07:20:11;;;;;;;5.88;1.90;;;;;;;22.41;53.12;92237.44;2071162;69;20155;-74
2021/06/22 07:22:36;;;;;;;6.70;1.60;;;;;;;22.44;54.89;92228.13;2071544;69;20140;-75
2021/06/22 07:25:03;;;;;;;3.80;1.60;;;;;;;22.24;52.56;92230.81;2071683;69;20153;-75
2021/06/22 07:27:29;;;;;;;7.65;1.63;;;;;;;22.32;51.68;92228.03;2071760;69;20160;-75
2021/06/22 07:29:55;;;;;;;7.68;1.50;;;;;;;22.51;52.41;92214.59;2071844;69;20171;-74
2021/06/22 07:32:21;;;;;;;6.35;1.50;;;;;;;22.52;51.27;92222.47;2071787;69;20152;-74
2021/06/22 07:34:47;;;;;;;8.60;1.60;;;;;;;22.54;50.41;92204.56;2071597;69;20192;-74
2021/06/22 07:37:12;;;;;;;4.57;1.60;;;;;;;22.47;51.02;92205.94;2071816;69;20267;-75
2021/06/22 07:39:38;;;;;;;4.15;1.60;;;;;;;22.56;51.48;92202.44;2071867;69;20186;-74
2021/06/22 07:42:04;;;;;;;4.50;1.40;;;;;;;22.46;50.33;92196.63;2068380;69;20144;-76
2021/06/22 07:44:29;;;;;;;7.55;1.60;;;;;;;22.71;50.98;92202.56;2068421;69;20243;-76
2021/06/22 07:46:55;;;;;;;5.82;1.60;;;;;;;22.84;50.17;92201.94;2071985;69;20240;-76
2021/06/22 07:49:21;;;;;;;7.38;1.63;;;;;;;23.04;51.36;92187.03;2071565;69;20144;-76
2021/06/22 07:51:47;;;;;;;3.85;1.52;;;;;;;23.08;50.04;92189.22;2071730;69;20235;-76
2021/06/22 07:54:13;;;;;;;6.68;1.90;;;;;;;23.17;49.23;92184.25;2072059;69;20147;-77
2021/06/22 07:56:40;;;;;;;6.05;1.75;;;;;;;23.12;48.52;92183.50;2068342;69;20148;-76
2021/06/22 07:59:05;;;;;;;4.38;1.65;;;;;;;22.93;48.92;92176.19;2071820;69;20247;-76
2021/06/22 08:01:31;;;;;;;4.97;1.70;;;;;;;23.32;49.77;92177.13;2068429;69;20159;-77
2021/06/22 08:03:56;;;;;;;3.92;1.50;;;;;;;23.56;49.82;92171.53;2071618;69;20630;-76
2021/06/22 08:06:22;;;;;;;5.30;1.75;;;;;;;23.58;48.49;92162.91;2071814;69;20144;-76
2021/06/22 08:08:48;;;;;;;4.55;1.50;;;;;;;23.23;48.40;92164.91;2071718;69;20606;-76
2021/06/22 08:11:13;;;;;;;5.50;1.63;;;;;;;23.69;47.02;92165.84;2068418;69;20140;-75
2021/06/22 08:13:39;;;;;;;10.18;1.73;;;;;;;23.97;47.56;92162.34;2071825;69;20489;-75
2021/06/22 08:16:06;;;;;;;6.13;1.63;;;;;;;24.14;46.89;92148.69;2071757;69;20274;-75
2021/06/22 08:18:34;;;;;;;7.85;1.83;;;;;;;24.21;46.27;92147.28;2071633;69;20151;-75
2021/06/22 08:21:04;;;;;;;7.40;1.52;;;;;;;24.67;46.62;92152.38;2071637;69;20197;-75
2021/06/22 08:23:30;;;;;;;6.65;2.00;;;;;;;24.76;45.78;92142.28;2071767;69;20187;-75
2021/06/22 08:25:56;;;;;;;7.82;1.70;;;;;;;25.12;46.44;92143.69;2071781;69;20254;-76
2021/06/22 08:28:22;;;;;;;8.07;2.08;;;;;;;25.37;43.29;92144.34;2071862;69;20140;-76
2021/06/22 08:30:50;;;;;;;8.30;1.85;;;;;;;25.50;42.60;92150.78;2071771;69;20590;-76
2021/06/22 08:33:16;;;;;;;6.75;1.98;;;;;;;25.52;43.09;92153.66;2071843;69;20649;-76
2021/06/22 08:35:43;;;;;;;8.48;1.80;;;;;;;26.55;42.90;92149.53;2071654;69;20579;-76
2021/06/22 08:38:11;;;;;;;7.10;1.70;;;;;;;26.86;40.76;92150.00;2071645;69;20159;-75
2021/06/22 08:40:39;;;;;;;8.88;2.13;;;;;;;27.22;42.67;92150.44;2071846;69;20224;-76
2021/06/22 08:43:04;;;;;;;6.05;2.13;;;;;;;27.55;40.26;92145.72;2071869;69;20578;-76
2021/06/22 08:45:30;;;;;;;7.82;1.60;;;;;;;27.51;39.94;92142.16;2071739;69;20214;-77
2021/06/22 08:47:56;;;;;;;9.30;1.88;;;;;;;27.78;40.22;92140.44;2071768;69;20622;-75
2021/06/22 08:50:22;;;;;;;6.20;1.95;;;;;;;27.97;38.03;92137.31;2071732;69;20615;-76
2021/06/22 08:52:47;;;;;;;5.53;1.58;;;;;;;29.16;37.60;92139.16;2071681;69;20525;-75
2021/06/22 08:55:26;;;;;;;8.02;2.00;;;;;;;28.65;37.73;92137.06;2071811;69;20136;-75
2021/06/22 08:57:54;;;;;;;8.95;1.98;;;;;;;29.31;36.08;92140.31;2071705;69;20147;-75
2021/06/22 09:00:20;;;;;;;6.80;2.00;;;;;;;29.48;37.89;92134.94;2071755;69;20534;-75
2021/06/22 09:03:06;;;;;;;9.60;2.10;;;;;;;29.20;36.79;92136.19;2071764;69;20236;-75
2021/06/22 09:05:32;;;;;;;14.00;1.80;;;;;;;29.95;36.23;92131.13;2068249;69;20148;-75
2021/06/22 09:07:58;;;;;;;9.65;1.77;;;;;;;29.84;36.21;92130.63;2071853;69;20152;-75
2021/06/22 09:10:32;;;;;;;6.40;1.70;;;;;;;30.62;35.49;92133.28;2071676;69;20587;-75
2021/06/22 09:13:10;;;;;;;21.55;2.17;;;;;;;31.03;37.06;92129.44;2071663;69;20140;-75
2021/06/22 09:15:40;;;;;;;6.65;2.03;;;;;;;31.25;35.96;92127.41;2071832;69;20183;-75
2021/06/22 09:18:20;;;;;;;8.93;1.90;;;;;;;31.95;31.73;92123.41;2071965;69;20261;-75
2021/06/22 09:20:46;;;;;;;8.25;1.80;;;;;;;31.64;34.08;92122.03;2071603;69;20168;-75
2021/06/22 09:23:18;;;;;;;10.63;2.20;;;;;;;31.86;32.18;92117.81;2070121;69;20160;-75
2021/06/22 09:25:45;;;;;;;6.32;1.83;;;;;;;31.71;33.29;92122.59;2067210;69;20148;-75
2021/06/22 09:28:15;;;;;;;8.07;2.17;;;;;;;32.36;33.83;92106.16;2071219;69;20152;-75
2021/06/22 09:30:50;;;;;;;10.48;2.10;;;;;;;32.41;32.06;92103.88;2068366;69;20155;-76
2021/06/22 09:33:22;;;;;;;9.68;2.15;;;;;;;32.60;30.57;92109.84;2071250;69;20620;-76
2021/06/22 09:35:55;;;;;;;8.10;1.90;;;;;;;32.93;30.29;92094.94;2070918;69;20155;-76
2021/06/22 09:38:21;;;;;;;9.70;2.38;;;;;;;31.38;31.25;92100.22;2071194;69;20148;-76
2021/06/22 09:40:46;;;;;;;9.65;2.17;;;;;;;32.57;30.26;92093.91;2071365;69;20155;-75
2021/06/22 09:43:12;;;;;;;11.38;2.78;;;;;;;33.00;30.11;92095.47;2071088;69;20150;-75
2021/06/22 09:45:40;;;;;;;11.25;2.47;;;;;;;32.72;28.19;92094.19;2071239;69;20247;-75
2021/06/22 09:48:06;;;;;;;11.95;2.38;;;;;;;32.76;27.36;92100.59;2071314;69;20180;-76
2021/06/22 09:50:40;;;;;;;13.38;2.40;;;;;;;32.73;29.58;92092.69;2071005;69;20586;-80
2021/06/22 09:53:26;;;;;;;7.40;1.98;;;;;;;32.53;28.79;92082.38;2071358;69;20547;-75
2021/06/22 09:55:53;;;;;;;13.57;2.83;;;;;;;32.42;28.78;92075.44;2071427;69;20168;-76
2021/06/22 09:58:48;;;;;;;10.40;2.45;;;;;;;33.00;27.25;92083.81;2071315;69;20151;-75
2021/06/22 10:01:31;;;;;;;8.85;1.88;;;;;;;32.88;28.52;92079.78;2053828;69;20249;-75
2021/06/22 10:04:13;;;;;;;8.43;1.95;;;;;;;33.32;28.42;92076.88;2053556;70;20697;-74
2021/06/22 10:06:40;;;;;;;12.05;1.92;;;;;;;33.45;28.16;92070.63;2053960;69;20150;-75
2021/06/22 10:09:06;;;;;;;8.20;2.15;;;;;;;33.51;26.75;92071.13;2054033;69;20275;-75
2021/06/22 10:11:37;;;;;;;8.85;2.28;;;;;;;32.52;27.81;92072.91;2053771;70;20229;-75
2021/06/22 10:14:05;;;;;;;10.60;2.17;;;;;;;33.49;27.96;92073.41;2053754;70;20245;-75
2021/06/22 10:16:33;;;;;;;14.93;2.30;;;;;;;33.55;28.00;92061.53;2053824;69;20158;-75
2021/06/22 10:19:07;;;;;;;14.55;2.38;;;;;;;33.25;27.20;92072.72;2053625;70;20701;-75
2021/06/22 10:21:35;;;;;;;6.07;1.90;;;;;;;34.26;25.85;92064.03;2053946;70;20578;-74
2021/06/22 10:24:01;;;;;;;11.10;2.20;;;;;;;34.27;26.10;92066.19;2053775;70;20153;-74
2021/06/22 10:26:29;;;;;;;9.60;2.25;;;;;;;33.65;26.23;92055.31;2053846;69;20150;-75
2021/06/22 10:28:56;;;;;;;8.10;2.05;;;;;;;34.01;25.07;92067.88;2054190;69;20141;-75
2021/06/22 10:31:22;;;;;;;11.15;2.40;;;;;;;34.17;24.64;92054.88;2053901;69;20215;-76
2021/06/22 10:33:48;;;;;;;14.32;2.30;;;;;;;34.90;25.53;92051.97;2053852;69;20521;-75
2021/06/22 10:36:44;;;;;;;9.63;2.45;;;;;;;35.34;25.12;92054.56;2053851;70;20193;-75
2021/06/22 10:39:16;;;;;;;14.40;2.30;;;;;;;35.07;25.23;92052.03;2071079;69;20657;-75
2021/06/22 10:41:45;;;;;;;8.65;1.92;;;;;;;34.17;25.23;92045.38;2071176;69;20144;-75
2021/06/22 10:44:34;;;;;;;7.47;1.83;;;;;;;35.93;23.99;92050.56;2071561;69;20144;-75
2021/06/22 10:47:21;;;;;;;12.82;2.10;;;;;;;35.30;22.48;92059.88;2062865;69;20675;-75
2021/06/22 10:50:05;;;;;;;7.72;1.92;;;;;;;35.38;22.89;92048.53;2071497;69;20184;-75
2021/06/22 10:52:43;;;;;;;6.72;2.10;;;;;;;36.03;22.36;92056.69;2071486;69;20211;-75
2021/06/22 10:55:21;;;;;;;8.73;2.25;;;;;;;37.67;22.70;92055.44;2071226;69;20144;-74
2021/06/22 10:57:56;;;;;;;8.05;1.90;;;;;;;36.29;21.40;92054.03;2071819;69;20144;-75
2021/06/22 11:00:26;;;;;;;9.70;1.95;;;;;;;33.90;24.60;92037.59;2071771;69;20166;-73
2021/06/22 11:03:04;;;;;;;8.30;1.70;;;;;;;35.29;24.61;92044.53;2071705;69;20140;-75
2021/06/22 11:05:31;;;;;;;11.98;2.05;;;;;;;37.92;21.44;92040.19;2071651;69;20194;-75
2021/06/22 11:08:12;;;;;;;6.57;1.98;;;;;;;37.64;21.50;92057.03;2071893;69;20149;-75
2021/06/22 11:11:01;;;;;;;7.25;2.25;;;;;;;37.04;21.18;92049.78;2071919;69;20172;-75
2021/06/22 11:13:36;;;;;;;11.02;2.03;;;;;;;37.62;20.72;92039.53;2068656;69;20151;-74
2021/06/22 11:16:07;;;;;;;14.00;2.10;;;;;;;40.67;17.63;92049.34;2071370;69;20164;-75
2021/06/22 11:18:55;;;;;;;10.48;2.17;;;;;;;43.03;16.15;92053.31;2071576;69;20151;-75
2021/06/22 11:21:34;;;;;;;9.63;1.90;;;;;;;45.12;14.78;92053.59;2071559;69;20133;-75
2021/06/22 11:24:10;;;;;;;9.43;2.20;;;;;;;40.38;18.29;92030.50;2071220;69;20634;-75
2021/06/22 11:26:45;;;;;;;10.82;1.85;;;;;;;35.98;21.78;92025.47;2071462;69;20156;-75
2021/06/22 11:29:44;;;;;;;8.32;1.90;;;;;;;35.63;20.14;92021.84;2071694;69;20231;-75
2021/06/22 11:32:26;;;;;;;10.48;1.95;;;;;;;37.26;20.13;92021.56;2053831;70;20144;-74
2021/06/22 11:34:54;;;;;;;9.13;1.90;;;;;;;34.70;20.88;92005.34;2054044;70;20605;-74
2021/06/22 11:37:23;;;;;;;7.68;1.95;;;;;;;34.62;21.51;92007.09;2053585;70;20284;-79
2021/06/22 11:40:08;;;;;;;7.93;1.88;;;;;;;35.33;23.09;92006.34;2053879;70;20133;-75